createdAt,value
2023-02-23T00:02:27.554Z,94891.28
2023-02-23T00:04:54.223Z,94886.06
2023-02-23T00:07:20.843Z,94893.22
2023-02-23T00:09:47.453Z,94884.00
2023-02-23T00:12:14.066Z,94897.06
2023-02-23T00:14:51.688Z,94890.56
2023-02-23T00:17:18.350Z,94882.59
2023-02-23T00:19:47.828Z,94892.44
2023-02-23T00:22:14.467Z,94884.03
2023-02-23T00:24:43.352Z,94882.91
2023-02-23T00:27:10.528Z,94877.53
2023-02-23T00:29:37.150Z,94873.34
2023-02-23T00:32:04.353Z,94874.94
2023-02-23T00:34:31.044Z,94875.13
2023-02-23T00:36:57.650Z,94871.44
2023-02-23T00:39:24.426Z,94872.25
2023-02-23T00:41:52.562Z,94869.84
2023-02-23T00:44:21.121Z,94876.31
2023-02-23T00:46:47.992Z,94868.66
2023-02-23T00:49:14.689Z,94868.00
2023-02-23T00:51:41.860Z,94867.03
2023-02-23T00:54:12.012Z,94868.31
2023-02-23T00:56:40.083Z,94869.00
2023-02-23T00:59:07.869Z,94869.66
2023-02-23T01:01:36.413Z,94864.84
2023-02-23T01:04:03.610Z,94859.78
2023-02-23T01:06:30.409Z,94862.31
2023-02-23T01:08:57.082Z,94854.22
2023-02-23T01:11:28.467Z,94859.72
2023-02-23T01:13:58.219Z,94858.00
2023-02-23T01:16:29.218Z,94854.44
2023-02-23T01:18:59.184Z,94857.56
2023-02-23T01:21:29.800Z,94862.28
2023-02-23T01:23:57.151Z,94858.06
2023-02-23T01:26:32.906Z,94855.63
2023-02-23T01:29:02.416Z,94860.75
2023-02-23T01:31:30.252Z,94859.16
2023-02-23T01:33:59.902Z,94853.44
2023-02-23T01:36:28.367Z,94851.22
2023-02-23T01:38:55.977Z,94848.69
2023-02-23T01:41:24.219Z,94844.94
2023-02-23T01:44:07.819Z,94849.63
2023-02-23T01:46:40.356Z,94847.72
2023-02-23T01:49:25.154Z,94848.41
2023-02-23T01:52:13.369Z,94848.41
2023-02-23T01:54:50.203Z,94850.41
2023-02-23T01:57:20.223Z,94852.31
2023-02-23T01:59:49.963Z,94842.59
2023-02-23T02:02:20.793Z,94840.53
2023-02-23T02:04:48.136Z,94841.13
2023-02-23T02:07:29.786Z,94841.78
2023-02-23T02:09:58.982Z,94843.16
2023-02-23T02:12:25.669Z,94836.63
2023-02-23T02:14:53.403Z,94831.19
2023-02-23T02:17:38.971Z,94833.38
2023-02-23T02:20:42.086Z,94835.50
2023-02-23T02:23:23.763Z,94827.25
2023-02-23T02:26:08.898Z,94820.41
2023-02-23T02:29:00.273Z,94820.50
2023-02-23T02:31:35.798Z,94810.09
2023-02-23T02:34:14.264Z,94813.25
2023-02-23T02:37:28.774Z,94808.25
2023-02-23T02:40:22.086Z,94806.06
2023-02-23T02:43:06.321Z,94807.03
2023-02-23T02:46:08.095Z,94805.91
2023-02-23T02:48:57.661Z,94804.22
2023-02-23T02:51:31.400Z,94803.81
2023-02-23T02:54:19.257Z,94796.22
2023-02-23T02:56:48.808Z,94796.81
2023-02-23T02:59:19.641Z,94801.50
2023-02-23T03:01:46.337Z,94800.75
2023-02-23T03:04:25.325Z,94795.84
2023-02-23T03:06:51.913Z,94801.34
2023-02-23T03:09:33.517Z,94792.91
2023-02-23T03:12:25.142Z,94800.16
2023-02-23T03:14:58.978Z,94804.28
2023-02-23T03:18:11.168Z,94799.00
2023-02-23T03:20:54.338Z,94799.00
2023-02-23T03:23:49.033Z,94802.78
2023-02-23T03:26:19.653Z,94799.09
2023-02-23T03:29:11.553Z,94803.50
2023-02-23T03:31:58.395Z,94796.75
2023-02-23T03:34:24.965Z,94800.22
2023-02-23T03:37:03.808Z,94798.66
2023-02-23T03:39:43.467Z,94795.78
2023-02-23T03:42:17.782Z,94792.38
2023-02-23T03:44:48.801Z,94790.22
2023-02-23T03:47:21.388Z,94795.88
2023-02-23T03:49:50.949Z,94797.59
2023-02-23T03:52:26.791Z,94796.66
2023-02-23T03:55:04.795Z,94792.50
2023-02-23T03:57:37.449Z,94796.22
2023-02-23T04:00:11.864Z,94798.75
2023-02-23T04:02:42.919Z,94795.28
2023-02-23T04:05:16.767Z,94794.13
2023-02-23T04:07:49.203Z,94800.41
2023-02-23T04:10:16.234Z,94796.78
2023-02-23T04:12:58.048Z,94795.97
2023-02-23T04:15:34.018Z,94789.97
2023-02-23T04:18:01.016Z,94792.75
2023-02-23T04:20:27.907Z,94795.88
2023-02-23T04:22:54.630Z,94798.81
2023-02-23T04:25:21.367Z,94801.16
2023-02-23T04:27:48.509Z,94808.91
2023-02-23T04:30:15.341Z,94804.28
2023-02-23T04:32:42.238Z,94810.16
2023-02-23T04:35:10.132Z,94808.66
2023-02-23T04:37:37.904Z,94804.00
2023-02-23T04:40:06.300Z,94803.25
2023-02-23T04:42:32.980Z,94808.38
2023-02-23T04:44:59.685Z,94810.84
2023-02-23T04:47:26.492Z,94813.75
2023-02-23T04:49:53.401Z,94808.38
2023-02-23T04:52:20.075Z,94812.16
2023-02-23T04:54:46.706Z,94813.59
2023-02-23T04:57:13.334Z,94805.53
2023-02-23T04:59:40.331Z,94811.81
2023-02-23T05:02:07.342Z,94802.69
2023-02-23T05:04:34.247Z,94806.53
2023-02-23T05:07:01.568Z,94802.00
2023-02-23T05:09:28.171Z,94798.25
2023-02-23T05:11:54.866Z,94802.91
2023-02-23T05:14:22.529Z,94795.59
2023-02-23T05:16:49.188Z,94800.59
2023-02-23T05:19:16.010Z,94791.59
2023-02-23T05:21:42.636Z,94801.38
2023-02-23T05:24:09.274Z,94807.59
2023-02-23T05:26:35.980Z,94803.28
2023-02-23T05:29:03.508Z,94804.72
2023-02-23T05:31:30.227Z,94801.53
2023-02-23T05:33:56.972Z,94800.91
2023-02-23T05:36:23.621Z,94802.28
2023-02-23T05:38:50.262Z,94802.56
2023-02-23T05:41:20.673Z,94794.81
2023-02-23T05:43:50.550Z,94792.28
2023-02-23T05:46:21.547Z,94786.00
2023-02-23T05:48:48.434Z,94786.81
2023-02-23T05:51:17.125Z,94788.22
2023-02-23T05:53:45.010Z,94790.66
2023-02-23T05:56:17.625Z,94788.31
2023-02-23T05:58:44.468Z,94784.16
2023-02-23T06:01:11.207Z,94794.47
2023-02-23T06:03:38.050Z,94789.91
2023-02-23T06:06:05.192Z,94788.97
2023-02-23T06:08:31.945Z,94798.16
2023-02-23T06:10:58.730Z,94801.56
2023-02-23T06:13:25.560Z,94794.47
2023-02-23T06:15:52.550Z,94796.28
2023-02-23T06:18:19.271Z,94799.34
2023-02-23T06:20:46.201Z,94801.06
2023-02-23T06:23:13.217Z,94806.53
2023-02-23T06:25:39.867Z,94803.06
2023-02-23T06:28:06.516Z,94804.34
2023-02-23T06:30:33.155Z,94796.78
2023-02-23T06:32:59.916Z,94808.25
2023-02-23T06:35:26.634Z,94802.91
2023-02-23T06:37:53.527Z,94804.97
2023-02-23T06:40:21.324Z,94802.63
2023-02-23T06:42:50.492Z,94811.59
2023-02-23T06:45:18.038Z,94809.19
2023-02-23T06:47:45.446Z,94814.69
2023-02-23T06:50:12.221Z,94813.59
2023-02-23T06:52:38.892Z,94805.13
2023-02-23T06:55:06.478Z,94815.16
2023-02-23T06:57:33.103Z,94815.50
2023-02-23T06:59:59.876Z,94813.94
2023-02-23T07:02:26.477Z,94814.34
2023-02-23T07:04:53.157Z,94820.41
2023-02-23T07:07:19.792Z,94815.06
2023-02-23T07:09:46.415Z,94824.56
2023-02-23T07:12:13.026Z,94825.22
2023-02-23T07:14:39.922Z,94826.28
2023-02-23T07:17:06.597Z,94820.78
2023-02-23T07:19:33.234Z,94828.13
2023-02-23T07:21:59.891Z,94827.53
2023-02-23T07:24:26.519Z,94830.13
2023-02-23T07:26:53.158Z,94822.41
2023-02-23T07:29:19.803Z,94829.31
2023-02-23T07:31:46.669Z,94829.16
2023-02-23T07:34:13.451Z,94825.22
2023-02-23T07:36:40.159Z,94824.56
2023-02-23T07:39:07.079Z,94821.75
2023-02-23T07:41:33.784Z,94816.75
2023-02-23T07:44:00.714Z,94822.00
2023-02-23T07:46:27.405Z,94825.97
2023-02-23T07:48:54.153Z,94830.19
2023-02-23T07:51:21.279Z,94820.97
2023-02-23T07:53:48.051Z,94828.44
2023-02-23T07:56:14.853Z,94820.00
2023-02-23T07:58:43.376Z,94826.75
2023-02-23T08:01:11.788Z,94826.66
2023-02-23T08:03:38.884Z,94820.19
2023-02-23T08:06:06.565Z,94820.38
2023-02-23T08:08:33.250Z,94832.44
2023-02-23T08:11:04.897Z,94826.72
2023-02-23T08:13:32.377Z,94823.19
2023-02-23T08:15:59.661Z,94828.19
2023-02-23T08:18:26.554Z,94821.03
2023-02-23T08:21:04.232Z,94821.44
2023-02-23T08:23:33.036Z,94822.91
2023-02-23T08:26:01.160Z,94824.59
2023-02-23T08:28:29.446Z,94825.72
2023-02-23T08:30:56.269Z,94828.38
2023-02-23T08:33:22.968Z,94826.34
2023-02-23T08:35:51.320Z,94821.00
2023-02-23T08:38:19.117Z,94825.13
2023-02-23T08:40:46.586Z,94810.28
2023-02-23T08:43:13.249Z,94817.09
2023-02-23T08:45:40.004Z,94820.59
2023-02-23T08:48:08.000Z,94820.91
2023-02-23T08:50:35.235Z,94817.16
2023-02-23T08:53:01.929Z,94815.56
2023-02-23T08:55:28.605Z,94812.63
2023-02-23T08:57:55.265Z,94806.66
2023-02-23T09:00:22.391Z,94815.94
2023-02-23T09:02:49.052Z,94805.03
2023-02-23T09:05:17.770Z,94806.88
2023-02-23T09:07:45.401Z,94797.72
2023-02-23T09:10:14.757Z,94803.25
2023-02-23T09:12:41.455Z,94800.28
2023-02-23T09:15:09.172Z,94807.31
2023-02-23T09:17:36.485Z,94805.97
2023-02-23T09:20:04.588Z,94802.97
2023-02-23T09:22:31.982Z,94811.94
2023-02-23T09:24:58.646Z,94811.81
2023-02-23T09:27:25.366Z,94807.81
2023-02-23T09:29:54.161Z,94809.84
2023-02-23T09:32:21.023Z,94806.16
2023-02-23T09:34:47.760Z,94806.22
2023-02-23T09:37:14.601Z,94814.81
2023-02-23T09:39:41.265Z,94807.03
2023-02-23T09:42:24.082Z,94811.19
2023-02-23T09:45:16.542Z,94816.88
2023-02-23T09:48:23.394Z,94816.03
2023-02-23T09:50:56.302Z,94822.59
2023-02-23T09:53:22.881Z,94820.91
2023-02-23T09:55:53.542Z,94824.38
2023-02-23T09:58:26.622Z,94829.78
2023-02-23T10:01:11.329Z,94825.81
2023-02-23T10:03:54.209Z,94829.13
2023-02-23T10:06:22.034Z,94830.28
2023-02-23T10:08:55.945Z,94825.94
2023-02-23T10:11:38.435Z,94822.38
2023-02-23T10:14:45.409Z,94819.66
2023-02-23T10:17:22.118Z,94816.88
2023-02-23T10:20:26.781Z,94818.81
2023-02-23T10:22:57.982Z,94805.97
2023-02-23T10:25:28.665Z,94813.66
2023-02-23T10:27:58.535Z,94815.72
2023-02-23T10:30:28.464Z,94813.06
2023-02-23T10:33:13.572Z,94804.81
2023-02-23T10:35:40.263Z,94803.56
2023-02-23T10:38:18.436Z,94804.44
2023-02-23T10:40:50.820Z,94806.59
2023-02-23T10:43:17.482Z,94803.13
2023-02-23T10:45:47.711Z,94811.03
2023-02-23T10:48:19.363Z,94805.88
2023-02-23T10:50:48.577Z,94809.00
2023-02-23T10:53:28.129Z,94806.84
2023-02-23T10:56:15.189Z,94807.78
2023-02-23T10:58:51.911Z,94800.41
2023-02-23T11:01:49.152Z,94801.28
2023-02-23T11:04:32.417Z,94796.34
2023-02-23T11:07:16.654Z,94796.63
2023-02-23T11:09:47.481Z,94798.59
2023-02-23T11:12:20.304Z,94795.47
2023-02-23T11:14:50.937Z,94792.75
2023-02-23T11:17:29.620Z,94794.00
2023-02-23T11:20:02.553Z,94794.31
2023-02-23T11:22:36.182Z,94788.59
2023-02-23T11:25:15.685Z,94791.69
2023-02-23T11:27:48.150Z,94785.94
2023-02-23T11:30:16.375Z,94782.69
2023-02-23T11:32:44.363Z,94789.09
2023-02-23T11:35:13.511Z,94775.47
2023-02-23T11:37:40.241Z,94773.97
2023-02-23T11:40:21.258Z,94772.66
2023-02-23T11:43:14.535Z,94775.56
2023-02-23T11:45:51.970Z,94772.50
2023-02-23T11:48:28.538Z,94769.28
2023-02-23T11:50:57.120Z,94770.19
2023-02-23T11:53:39.291Z,94762.47
2023-02-23T11:56:07.516Z,94763.69
2023-02-23T11:58:47.417Z,94761.00
2023-02-23T12:01:17.493Z,94764.84
2023-02-23T12:03:57.030Z,94755.25
2023-02-23T12:06:39.778Z,94756.63
2023-02-23T12:09:27.819Z,94752.38
2023-02-23T12:12:06.994Z,94754.72
2023-02-23T12:14:42.563Z,94752.13
2023-02-23T12:17:19.828Z,94748.06
2023-02-23T12:19:59.447Z,94738.38
2023-02-23T12:22:37.988Z,94739.69
2023-02-23T12:25:13.643Z,94734.72
2023-02-23T12:28:07.640Z,94733.22
2023-02-23T12:30:51.304Z,94729.25
2023-02-23T12:33:39.302Z,94735.22
2023-02-23T12:36:26.570Z,94732.19
2023-02-23T12:39:00.695Z,94728.09
2023-02-23T12:41:38.828Z,94728.44
2023-02-23T12:44:30.080Z,94725.13
2023-02-23T12:47:09.025Z,94719.78
2023-02-23T12:49:39.220Z,94726.06
2023-02-23T12:52:19.541Z,94723.47
2023-02-23T12:54:46.560Z,94729.84
2023-02-23T12:57:40.967Z,94727.19
2023-02-23T13:00:36.876Z,94729.34
2023-02-23T13:03:25.105Z,94723.50
2023-02-23T13:06:02.625Z,94714.97
2023-02-23T13:08:32.058Z,94709.88
2023-02-23T13:11:16.905Z,94717.38
2023-02-23T13:14:16.044Z,94716.81
2023-02-23T13:16:50.929Z,94710.81
2023-02-23T13:19:34.049Z,94710.59
2023-02-23T13:22:24.361Z,94716.06
2023-02-23T13:24:57.837Z,94713.78
2023-02-23T13:27:50.317Z,94711.50
2023-02-23T13:30:17.630Z,94711.88
2023-02-23T13:32:46.843Z,94703.34
2023-02-23T13:35:25.246Z,94702.69
2023-02-23T13:37:59.274Z,94703.13
2023-02-23T13:40:35.961Z,94709.59
2023-02-23T13:43:20.562Z,94714.81
2023-02-23T13:46:05.788Z,94719.53
2023-02-23T13:48:56.710Z,94719.91
2023-02-23T13:51:39.363Z,94720.66
2023-02-23T13:54:16.637Z,94715.72
2023-02-23T13:56:58.867Z,94712.19
2023-02-23T13:59:37.351Z,94709.91
2023-02-23T14:02:22.667Z,94706.63
2023-02-23T14:04:50.671Z,94710.16
2023-02-23T14:07:30.794Z,94712.09
2023-02-23T14:10:06.039Z,94704.63
2023-02-23T14:12:40.336Z,94702.84
2023-02-23T14:15:25.629Z,94694.81
2023-02-23T14:17:57.384Z,94697.59
2023-02-23T14:20:54.248Z,94695.28
2023-02-23T14:23:21.777Z,94695.19
2023-02-23T14:25:48.416Z,94686.09
2023-02-23T14:28:46.706Z,94684.91
2023-02-23T14:31:13.450Z,94682.66
2023-02-23T14:33:43.228Z,94685.47
2023-02-23T14:36:22.218Z,94684.56
2023-02-23T14:39:01.996Z,94685.31
2023-02-23T14:41:59.198Z,94680.41
2023-02-23T14:44:38.745Z,94685.09
2023-02-23T14:47:42.401Z,94674.34
2023-02-23T14:50:19.789Z,94675.63
2023-02-23T14:52:47.748Z,94673.03
2023-02-23T14:55:29.240Z,94666.00
2023-02-23T14:57:57.384Z,94666.97
2023-02-23T15:00:28.108Z,94668.44
2023-02-23T15:03:10.298Z,94663.28
2023-02-23T15:05:45.126Z,94659.91
2023-02-23T15:08:20.900Z,94661.81
2023-02-23T15:10:51.478Z,94659.31
2023-02-23T15:13:31.202Z,94657.47
2023-02-23T15:16:04.417Z,94661.38
2023-02-23T15:18:38.270Z,94659.09
2023-02-23T15:21:12.504Z,94656.41
2023-02-23T15:23:40.009Z,94647.94
2023-02-23T15:26:29.800Z,94654.88
2023-02-23T15:29:22.823Z,94647.66
2023-02-23T15:31:55.486Z,94643.75
2023-02-23T15:34:25.820Z,94656.97
2023-02-23T15:36:56.731Z,94652.47
2023-02-23T15:39:48.700Z,94652.19
2023-02-23T15:42:24.521Z,94655.31
2023-02-23T15:45:05.568Z,94650.34
2023-02-23T15:47:37.879Z,94648.19
2023-02-23T15:50:18.096Z,94648.00
2023-02-23T15:52:52.305Z,94642.94
2023-02-23T15:55:25.693Z,94637.59
2023-02-23T15:58:00.705Z,94647.47
2023-02-23T16:00:39.206Z,94647.09
2023-02-23T16:03:08.846Z,94635.47
2023-02-23T16:05:41.915Z,94638.41
2023-02-23T16:08:24.163Z,94637.34
2023-02-23T16:11:00.932Z,94636.22
2023-02-23T16:13:28.013Z,94642.41
2023-02-23T16:15:56.395Z,94645.50
2023-02-23T16:18:35.787Z,94650.06
2023-02-23T16:21:04.759Z,94650.03
2023-02-23T16:23:34.444Z,94657.56
2023-02-23T16:26:12.407Z,94660.03
2023-02-23T16:28:44.836Z,94653.28
2023-02-23T16:31:13.089Z,94657.16
2023-02-23T16:33:51.014Z,94653.84
2023-02-23T16:36:24.068Z,94653.19
2023-02-23T16:39:00.151Z,94650.34
2023-02-23T16:41:33.867Z,94659.16
2023-02-23T16:44:05.129Z,94653.63
2023-02-23T16:46:53.702Z,94650.00
2023-02-23T16:49:20.981Z,94652.38
2023-02-23T16:51:47.791Z,94651.19
2023-02-23T16:54:14.743Z,94654.56
2023-02-23T16:56:41.818Z,94658.31
2023-02-23T16:59:16.194Z,94652.06
2023-02-23T17:01:43.493Z,94651.66
2023-02-23T17:04:15.628Z,94649.00
2023-02-23T17:06:43.439Z,94651.00
2023-02-23T17:09:11.962Z,94657.91
2023-02-23T17:11:41.197Z,94666.22
2023-02-23T17:14:07.916Z,94663.69
2023-02-23T17:16:34.664Z,94657.66
2023-02-23T17:19:01.285Z,94659.81
2023-02-23T17:21:27.951Z,94666.72
2023-02-23T17:23:54.609Z,94669.31
2023-02-23T17:26:23.962Z,94675.78
2023-02-23T17:28:51.687Z,94676.06
2023-02-23T17:31:20.946Z,94681.59
2023-02-23T17:33:49.202Z,94682.72
2023-02-23T17:36:17.761Z,94687.16
2023-02-23T17:38:44.629Z,94683.59
2023-02-23T17:41:19.466Z,94694.78
2023-02-23T17:43:46.306Z,94691.50
2023-02-23T17:46:13.847Z,94699.34
2023-02-23T17:48:40.547Z,94702.06
2023-02-23T17:51:09.779Z,94695.97
2023-02-23T17:53:36.831Z,94694.13
2023-02-23T17:56:04.108Z,94702.84
2023-02-23T17:58:31.229Z,94695.09
2023-02-23T18:01:01.273Z,94703.38
2023-02-23T18:03:30.855Z,94701.63
2023-02-23T18:06:09.616Z,94703.78
2023-02-23T18:08:37.779Z,94711.38
2023-02-23T18:11:04.468Z,94702.13
2023-02-23T18:13:31.856Z,94709.25
2023-02-23T18:16:03.053Z,94709.44
2023-02-23T18:18:30.061Z,94705.94
2023-02-23T18:20:59.653Z,94711.00
2023-02-23T18:23:28.213Z,94715.31
2023-02-23T18:25:55.004Z,94713.69
2023-02-23T18:28:21.634Z,94715.63
2023-02-23T18:30:48.280Z,94713.69
2023-02-23T18:33:15.092Z,94717.38
2023-02-23T18:35:43.985Z,94717.38
2023-02-23T18:38:12.723Z,94717.78
2023-02-23T18:40:39.854Z,94714.41
2023-02-23T18:43:07.105Z,94711.66
2023-02-23T18:45:34.583Z,94707.59
2023-02-23T18:48:01.237Z,94712.66
2023-02-23T18:50:28.218Z,94709.19
2023-02-23T18:52:56.526Z,94713.00
2023-02-23T18:55:23.906Z,94712.00
2023-02-23T18:57:51.308Z,94705.47
2023-02-23T19:00:19.503Z,94712.44
2023-02-23T19:02:46.302Z,94714.63
2023-02-23T19:05:15.928Z,94707.66
2023-02-23T19:07:43.438Z,94713.00
2023-02-23T19:10:13.145Z,94715.84
2023-02-23T19:12:39.862Z,94711.19
2023-02-23T19:15:07.810Z,94709.25
2023-02-23T19:17:36.036Z,94712.06
2023-02-23T19:20:04.050Z,94706.66
2023-02-23T19:22:30.699Z,94710.88
2023-02-23T19:24:57.376Z,94712.06
2023-02-23T19:27:24.007Z,94704.13
2023-02-23T19:29:50.673Z,94707.41
2023-02-23T19:32:17.434Z,94704.84
2023-02-23T19:34:44.675Z,94704.38
2023-02-23T19:37:11.301Z,94701.47
2023-02-23T19:39:38.243Z,94697.72
2023-02-23T19:42:04.953Z,94704.59
2023-02-23T19:44:31.587Z,94702.63
2023-02-23T19:46:58.424Z,94703.78
2023-02-23T19:49:25.348Z,94709.53
2023-02-23T19:51:52.557Z,94707.19
2023-02-23T19:54:19.979Z,94711.16
2023-02-23T19:56:47.122Z,94703.91
2023-02-23T19:59:15.418Z,94703.75
2023-02-23T20:01:42.132Z,94704.38
2023-02-23T20:04:09.025Z,94704.72
2023-02-23T20:06:41.986Z,94695.75
2023-02-23T20:09:08.761Z,94697.00
2023-02-23T20:11:35.878Z,94702.06
2023-02-23T20:14:04.155Z,94702.28
2023-02-23T20:16:31.694Z,94700.34
2023-02-23T20:18:58.687Z,94690.94
2023-02-23T20:21:27.781Z,94692.66
2023-02-23T20:23:55.873Z,94697.72
2023-02-23T20:26:29.158Z,94708.97
2023-02-23T20:28:57.817Z,94696.19
2023-02-23T20:31:28.279Z,94696.75
2023-02-23T20:33:57.579Z,94691.47
2023-02-23T20:36:25.566Z,94690.78
2023-02-23T20:38:53.248Z,94690.44
2023-02-23T20:41:22.838Z,94697.81
2023-02-23T20:43:49.773Z,94690.09
2023-02-23T20:46:16.965Z,94702.59
2023-02-23T20:48:43.927Z,94694.38
2023-02-23T20:51:12.397Z,94703.09
2023-02-23T20:53:40.264Z,94692.91
2023-02-23T20:56:09.958Z,94707.88
2023-02-23T20:58:38.969Z,94698.78
2023-02-23T21:01:13.505Z,94696.81
2023-02-23T21:03:40.215Z,94691.69
2023-02-23T21:06:06.955Z,94691.28
2023-02-23T21:08:33.547Z,94696.31
2023-02-23T21:11:06.353Z,94699.47
2023-02-23T21:13:33.552Z,94697.75
2023-02-23T21:16:00.245Z,94699.72
2023-02-23T21:18:28.111Z,94698.19
2023-02-23T21:20:55.524Z,94696.00
2023-02-23T21:23:26.374Z,94701.00
2023-02-23T21:25:52.955Z,94701.78
2023-02-23T21:28:20.433Z,94695.00
2023-02-23T21:30:47.318Z,94690.06
2023-02-23T21:33:14.561Z,94694.72
2023-02-23T21:35:43.239Z,94689.38
2023-02-23T21:38:09.829Z,94691.53
2023-02-23T21:40:36.474Z,94686.28
2023-02-23T21:43:03.093Z,94690.38
2023-02-23T21:45:29.709Z,94694.38
2023-02-23T21:47:56.362Z,94685.94
2023-02-23T21:50:23.029Z,94683.31
2023-02-23T21:52:49.661Z,94677.31
2023-02-23T21:55:24.446Z,94683.31
2023-02-23T21:57:51.878Z,94678.44
2023-02-23T22:00:21.736Z,94680.38
2023-02-23T22:02:51.451Z,94685.59
2023-02-23T22:05:19.096Z,94686.94
2023-02-23T22:07:51.199Z,94691.59
2023-02-23T22:10:23.090Z,94688.28
2023-02-23T22:12:50.774Z,94687.75
2023-02-23T22:15:17.519Z,94676.38
2023-02-23T22:17:44.187Z,94679.22
2023-02-23T22:20:11.704Z,94679.56
2023-02-23T22:22:38.406Z,94681.13
2023-02-23T22:25:07.394Z,94679.88
2023-02-23T22:27:34.057Z,94677.44
2023-02-23T22:30:02.147Z,94684.63
2023-02-23T22:32:30.734Z,94687.09
2023-02-23T22:34:57.569Z,94683.66
2023-02-23T22:37:24.183Z,94677.97
2023-02-23T22:39:50.779Z,94678.59
2023-02-23T22:42:17.394Z,94678.19
2023-02-23T22:44:44.042Z,94676.44
2023-02-23T22:47:10.763Z,94676.16
2023-02-23T22:49:37.386Z,94679.94
2023-02-23T22:52:04.056Z,94673.19
2023-02-23T22:54:30.682Z,94683.25
2023-02-23T22:56:57.318Z,94682.78
2023-02-23T22:59:23.969Z,94680.44
2023-02-23T23:01:50.706Z,94678.84
2023-02-23T23:04:17.511Z,94685.13
2023-02-23T23:06:44.179Z,94685.25
2023-02-23T23:09:12.262Z,94676.28
2023-02-23T23:11:39.577Z,94677.47
2023-02-23T23:14:06.222Z,94673.84
2023-02-23T23:16:35.247Z,94672.75
2023-02-23T23:19:06.145Z,94674.97
2023-02-23T23:21:34.550Z,94680.59
2023-02-23T23:24:03.723Z,94677.09
2023-02-23T23:26:30.378Z,94680.03
2023-02-23T23:28:59.535Z,94675.38
2023-02-23T23:31:32.336Z,94666.34
2023-02-23T23:34:01.877Z,94659.81
2023-02-23T23:36:40.890Z,94657.91
2023-02-23T23:39:07.501Z,94657.41
2023-02-23T23:41:34.146Z,94648.09
2023-02-23T23:44:01.841Z,94647.16
2023-02-23T23:46:31.721Z,94656.22
2023-02-23T23:49:00.737Z,94655.88
2023-02-23T23:51:32.969Z,94657.53
2023-02-23T23:54:01.756Z,94650.88
2023-02-23T23:56:29.454Z,94648.75
2023-02-23T23:58:59.118Z,94647.69
